createdAt,value
2022-10-31T00:01:32.021Z,91.34
2022-10-31T00:03:58.774Z,91.12
2022-10-31T00:06:26.774Z,91.10
2022-10-31T00:08:56.524Z,90.90
2022-10-31T00:11:23.438Z,91.24
2022-10-31T00:13:50.322Z,90.89
2022-10-31T00:16:22.606Z,90.92
2022-10-31T00:18:54.092Z,90.88
2022-10-31T00:21:22.249Z,90.81
2022-10-31T00:23:49.548Z,90.96
2022-10-31T00:26:16.856Z,90.91
2022-10-31T00:28:44.254Z,91.12
2022-10-31T00:31:12.662Z,91.19
2022-10-31T00:33:41.485Z,91.21
2022-10-31T00:36:11.731Z,91.07
2022-10-31T00:38:38.674Z,90.97
2022-10-31T00:41:05.632Z,91.17
2022-10-31T00:43:32.418Z,91.12
2022-10-31T00:45:59.187Z,90.86
2022-10-31T00:48:25.954Z,91.00
2022-10-31T00:50:52.711Z,91.26
2022-10-31T00:53:19.512Z,91.05
2022-10-31T00:55:46.281Z,91.07
2022-10-31T01:00:40.045Z,91.11
2022-10-31T01:03:06.948Z,91.42
2022-10-31T01:05:33.833Z,91.35
2022-10-31T01:08:01.085Z,91.70
2022-10-31T01:10:27.933Z,91.23
2022-10-31T01:12:54.698Z,91.56
2022-10-31T01:15:23.978Z,91.55
2022-10-31T01:17:51.484Z,91.58
2022-10-31T01:20:19.006Z,91.58
2022-10-31T01:22:46.014Z,91.71
2022-10-31T01:25:12.939Z,91.32
2022-10-31T01:27:39.904Z,91.27
2022-10-31T01:30:07.159Z,91.52
2022-10-31T01:32:33.911Z,91.59
2022-10-31T01:35:00.626Z,91.92
2022-10-31T01:37:27.431Z,91.61
2022-10-31T01:39:54.187Z,91.67
2022-10-31T01:42:23.254Z,91.40
2022-10-31T01:44:55.089Z,91.55
2022-10-31T01:47:33.209Z,91.09
2022-10-31T01:50:03.750Z,91.08
2022-10-31T01:52:37.766Z,91.07
2022-10-31T01:55:10.713Z,90.95
2022-10-31T01:57:41.403Z,90.87
2022-10-31T02:00:10.911Z,90.69
2022-10-31T02:02:38.004Z,90.66
2022-10-31T02:05:10.420Z,90.74
2022-10-31T02:07:53.080Z,90.62
2022-10-31T02:10:22.145Z,90.68
2022-10-31T02:12:51.549Z,90.44
2022-10-31T02:15:18.382Z,90.54
2022-10-31T02:17:45.728Z,90.57
2022-10-31T02:20:20.494Z,90.64
2022-10-31T02:23:17.889Z,90.65
2022-10-31T02:26:06.379Z,90.74
2022-10-31T02:29:04.716Z,90.77
2022-10-31T02:31:57.495Z,90.79
2022-10-31T02:34:38.909Z,90.75
2022-10-31T02:37:15.321Z,90.57
2022-10-31T02:39:53.070Z,90.72
2022-10-31T02:42:33.270Z,90.78
2022-10-31T02:45:12.049Z,90.75
2022-10-31T02:47:39.636Z,90.84
2022-10-31T02:50:19.263Z,90.67
2022-10-31T02:52:46.141Z,90.60
2022-10-31T02:55:28.042Z,90.68
2022-10-31T02:58:10.799Z,90.78
2022-10-31T03:01:05.651Z,90.78
2022-10-31T03:03:35.507Z,90.72
2022-10-31T03:06:28.517Z,90.59
2022-10-31T03:09:24.401Z,90.54
2022-10-31T03:12:03.337Z,90.41
2022-10-31T03:14:41.976Z,90.32
2022-10-31T03:17:16.406Z,90.38
2022-10-31T03:19:49.028Z,90.49
2022-10-31T03:22:28.675Z,90.38
2022-10-31T03:24:57.541Z,90.37
2022-10-31T03:27:27.634Z,90.64
2022-10-31T03:29:58.610Z,90.67
2022-10-31T03:32:39.606Z,90.59
2022-10-31T03:35:09.423Z,90.64
2022-10-31T03:37:39.355Z,90.38
2022-10-31T03:40:09.160Z,90.37
2022-10-31T03:42:41.032Z,90.37
2022-10-31T03:45:11.964Z,90.37
2022-10-31T03:47:39.964Z,90.42
2022-10-31T03:50:08.849Z,90.07
2022-10-31T03:53:04.732Z,90.37
2022-10-31T03:55:41.892Z,90.53
2022-10-31T04:00:48.528Z,90.64
2022-10-31T04:03:28.398Z,90.24
2022-10-31T04:05:58.299Z,90.53
2022-10-31T04:08:29.642Z,90.46
2022-10-31T04:10:58.927Z,90.51
2022-10-31T04:13:30.781Z,90.62
2022-10-31T04:15:58.109Z,90.65
2022-10-31T04:18:26.161Z,90.50
2022-10-31T04:21:04.667Z,90.46
2022-10-31T04:23:32.352Z,90.52
2022-10-31T04:25:59.134Z,90.48
2022-10-31T04:28:25.970Z,90.54
2022-10-31T04:30:53.306Z,90.49
2022-10-31T04:33:20.587Z,90.46
2022-10-31T04:35:48.281Z,90.54
2022-10-31T04:38:15.162Z,90.53
2022-10-31T04:40:42.168Z,90.71
2022-10-31T04:43:09.191Z,90.56
2022-10-31T04:45:36.093Z,90.87
2022-10-31T04:48:03.213Z,90.92
2022-10-31T04:50:30.453Z,90.95
2022-10-31T04:52:57.316Z,90.79
2022-10-31T04:55:24.221Z,90.77
2022-10-31T04:57:51.895Z,90.84
2022-10-31T05:00:21.148Z,90.94
2022-10-31T05:02:49.097Z,90.91
2022-10-31T05:05:20.074Z,90.88
2022-10-31T05:07:48.291Z,90.83
2022-10-31T05:10:18.507Z,91.11
2022-10-31T05:12:50.788Z,90.70
2022-10-31T05:15:19.193Z,90.91
2022-10-31T05:17:46.068Z,91.00
2022-10-31T05:20:14.704Z,91.01
2022-10-31T05:22:46.295Z,90.95
2022-10-31T05:25:13.633Z,90.75
2022-10-31T05:27:45.743Z,90.87
2022-10-31T05:30:14.334Z,91.02
2022-10-31T05:32:42.612Z,90.95
2022-10-31T05:35:16.096Z,90.90
2022-10-31T05:37:43.467Z,91.07
2022-10-31T05:40:12.849Z,91.38
2022-10-31T05:42:41.433Z,90.92
2022-10-31T05:45:18.105Z,91.13
2022-10-31T05:48:11.418Z,91.24
2022-10-31T05:50:38.245Z,91.42
2022-10-31T05:53:06.397Z,91.44
2022-10-31T05:55:33.460Z,91.57
2022-10-31T05:58:00.667Z,91.76
2022-10-31T06:00:28.690Z,91.79
2022-10-31T06:03:00.526Z,91.81
2022-10-31T06:05:27.750Z,91.78
2022-10-31T06:07:54.701Z,91.57
2022-10-31T06:10:22.177Z,91.50
2022-10-31T06:12:50.240Z,91.74
2022-10-31T06:15:23.473Z,91.85
2022-10-31T06:18:05.371Z,91.89
2022-10-31T06:20:33.363Z,91.68
2022-10-31T06:23:00.628Z,91.83
2022-10-31T06:25:27.900Z,91.70
2022-10-31T06:27:55.611Z,91.54
2022-10-31T06:30:22.463Z,91.79
2022-10-31T06:32:50.684Z,91.79
2022-10-31T06:35:17.799Z,91.71
2022-10-31T06:37:52.296Z,91.92
2022-10-31T06:40:19.054Z,91.97
2022-10-31T06:42:45.880Z,91.83
2022-10-31T06:45:12.764Z,92.38
2022-10-31T06:47:56.710Z,92.29
2022-10-31T06:50:26.629Z,92.40
2022-10-31T06:52:54.993Z,92.44
2022-10-31T06:55:25.911Z,92.47
2022-10-31T06:58:12.028Z,92.58
2022-10-31T07:00:38.889Z,92.41
2022-10-31T07:03:13.240Z,92.74
2022-10-31T07:05:41.041Z,92.92
2022-10-31T07:08:11.003Z,92.99
2022-10-31T07:10:40.687Z,92.73
2022-10-31T07:13:12.831Z,92.76
2022-10-31T07:15:41.550Z,92.94
2022-10-31T07:18:10.655Z,92.89
2022-10-31T07:20:37.734Z,93.08
2022-10-31T07:23:05.860Z,93.11
2022-10-31T07:25:32.931Z,93.09
2022-10-31T07:28:00.061Z,93.46
2022-10-31T07:30:27.343Z,93.73
2022-10-31T07:32:54.459Z,93.70
2022-10-31T07:35:23.811Z,93.55
2022-10-31T07:37:50.960Z,93.64
2022-10-31T07:40:19.244Z,93.77
2022-10-31T07:42:51.359Z,93.74
2022-10-31T07:45:20.700Z,93.93
2022-10-31T07:47:53.063Z,93.89
2022-10-31T07:50:25.266Z,93.89
2022-10-31T07:53:11.488Z,93.87
2022-10-31T07:55:38.926Z,93.80
2022-10-31T07:58:08.433Z,93.95
2022-10-31T08:00:37.729Z,93.84
2022-10-31T08:03:07.077Z,93.90
2022-10-31T08:05:34.759Z,93.84
2022-10-31T08:08:02.153Z,94.02
2022-10-31T08:10:29.549Z,94.01
2022-10-31T08:13:01.624Z,93.82
2022-10-31T08:15:28.889Z,94.18
2022-10-31T08:17:56.031Z,94.36
2022-10-31T08:20:23.476Z,94.48
2022-10-31T08:23:09.608Z,94.66
2022-10-31T08:25:38.696Z,94.59
2022-10-31T08:28:07.805Z,94.84
2022-10-31T08:30:37.117Z,95.00
2022-10-31T08:33:11.292Z,95.05
2022-10-31T08:35:38.265Z,94.94
2022-10-31T08:38:05.824Z,94.98
2022-10-31T08:40:33.903Z,94.95
2022-10-31T08:43:10.467Z,94.89
2022-10-31T08:45:37.434Z,95.08
2022-10-31T08:48:06.803Z,94.82
2022-10-31T08:50:35.856Z,95.01
2022-10-31T08:53:15.305Z,95.09
2022-10-31T08:55:43.573Z,95.21
2022-10-31T08:58:13.323Z,95.21
2022-10-31T09:00:40.423Z,95.12
2022-10-31T09:03:13.352Z,94.84
2022-10-31T09:05:41.089Z,95.11
2022-10-31T09:08:14.865Z,95.03
2022-10-31T09:10:43.959Z,95.02
2022-10-31T09:13:13.667Z,95.12
2022-10-31T09:15:42.175Z,95.32
2022-10-31T09:18:10.351Z,95.25
2022-10-31T09:20:39.078Z,95.46
2022-10-31T09:23:11.597Z,95.49
2022-10-31T09:25:39.098Z,95.43
2022-10-31T09:28:07.507Z,95.68
2022-10-31T09:30:36.066Z,95.75
2022-10-31T09:33:08.338Z,95.73
2022-10-31T09:35:35.093Z,95.85
2022-10-31T09:38:13.548Z,95.97
2022-10-31T09:40:45.182Z,96.21
2022-10-31T09:43:40.831Z,96.03
2022-10-31T09:46:24.116Z,96.11
2022-10-31T09:49:02.080Z,96.28
2022-10-31T09:52:06.505Z,96.32
2022-10-31T09:54:46.117Z,96.08
2022-10-31T09:57:26.780Z,96.16
2022-10-31T09:59:53.625Z,96.06
2022-10-31T10:02:29.587Z,95.89
2022-10-31T10:05:05.531Z,95.87
2022-10-31T10:08:18.555Z,95.91
2022-10-31T10:11:10.112Z,95.58
2022-10-31T10:14:08.357Z,95.34
2022-10-31T10:16:58.894Z,94.88
2022-10-31T10:19:55.661Z,94.77
2022-10-31T10:22:40.312Z,94.45
2022-10-31T10:25:24.745Z,94.01
2022-10-31T10:28:16.074Z,93.89
2022-10-31T10:30:51.811Z,93.94
2022-10-31T10:33:23.087Z,93.73
2022-10-31T10:36:00.799Z,93.34
2022-10-31T10:39:15.239Z,93.05
2022-10-31T10:41:48.500Z,92.59
2022-10-31T10:44:16.849Z,92.58
2022-10-31T10:47:08.557Z,92.42
2022-10-31T10:49:51.518Z,92.45
2022-10-31T10:52:43.452Z,92.31
2022-10-31T10:55:31.719Z,91.40
2022-10-31T10:58:08.398Z,91.16
2022-10-31T11:00:47.654Z,90.84
2022-10-31T11:03:15.765Z,90.76
2022-10-31T11:05:55.067Z,90.80
2022-10-31T11:08:29.901Z,90.59
2022-10-31T11:11:17.920Z,89.61
2022-10-31T11:13:48.804Z,89.30
2022-10-31T11:16:38.110Z,88.96
2022-10-31T11:19:13.479Z,88.58
2022-10-31T11:21:40.507Z,89.07
2022-10-31T11:24:10.377Z,88.43
2022-10-31T11:26:39.288Z,88.58
2022-10-31T11:29:12.499Z,88.34
2022-10-31T11:31:40.298Z,88.71
2022-10-31T11:34:19.665Z,88.13
2022-10-31T11:36:47.303Z,88.07
2022-10-31T11:39:25.226Z,88.34
2022-10-31T11:41:55.585Z,87.70
2022-10-31T11:44:28.908Z,87.70
2022-10-31T11:47:00.009Z,87.24
2022-10-31T11:49:35.213Z,87.70
2022-10-31T11:52:07.625Z,87.32
2022-10-31T11:54:43.737Z,86.98
2022-10-31T11:57:47.114Z,86.00
2022-10-31T12:03:12.699Z,85.86
2022-10-31T12:05:41.306Z,85.55
2022-10-31T12:08:14.010Z,85.92
2022-10-31T12:10:53.295Z,85.84
2022-10-31T12:13:32.680Z,85.77
2022-10-31T12:16:09.544Z,85.77
2022-10-31T12:19:02.323Z,85.93
2022-10-31T12:21:51.246Z,85.78
2022-10-31T12:24:26.197Z,85.97
2022-10-31T12:27:26.691Z,86.00
2022-10-31T12:30:18.484Z,86.38
2022-10-31T12:33:02.556Z,86.58
2022-10-31T12:35:53.911Z,86.27
2022-10-31T12:38:48.045Z,86.28
2022-10-31T12:41:34.437Z,85.52
2022-10-31T12:44:33.620Z,85.79
2022-10-31T12:47:33.106Z,86.16
2022-10-31T12:50:30.231Z,85.99
2022-10-31T12:53:00.805Z,85.60
2022-10-31T12:55:36.776Z,85.75
2022-10-31T12:58:11.336Z,85.19
2022-10-31T13:00:43.515Z,85.09
2022-10-31T13:03:27.825Z,85.07
2022-10-31T13:06:06.686Z,85.25
2022-10-31T13:08:53.673Z,84.75
2022-10-31T13:11:28.727Z,85.15
2022-10-31T13:14:10.682Z,85.48
2022-10-31T13:16:47.875Z,85.75
2022-10-31T13:19:25.857Z,85.36
2022-10-31T13:22:05.886Z,85.27
2022-10-31T13:24:48.479Z,85.30
2022-10-31T13:27:40.268Z,85.39
2022-10-31T13:30:17.660Z,85.86
2022-10-31T13:33:04.357Z,86.12
2022-10-31T13:36:02.220Z,85.85
2022-10-31T13:38:43.643Z,85.76
2022-10-31T13:41:34.144Z,86.12
2022-10-31T13:44:01.050Z,86.15
2022-10-31T13:46:39.026Z,85.66
2022-10-31T13:49:26.307Z,85.77
2022-10-31T13:51:54.321Z,85.36
2022-10-31T13:54:45.352Z,85.10
2022-10-31T13:57:15.193Z,84.64
2022-10-31T13:59:50.580Z,84.59
2022-10-31T14:02:28.057Z,84.59
2022-10-31T14:05:24.143Z,84.51
2022-10-31T14:07:52.770Z,84.03
2022-10-31T14:10:26.035Z,84.13
2022-10-31T14:12:55.076Z,84.12
2022-10-31T14:15:27.495Z,84.23
2022-10-31T14:18:06.862Z,84.44
2022-10-31T14:20:34.212Z,84.62
2022-10-31T14:23:31.306Z,84.42
2022-10-31T14:26:32.352Z,84.71
2022-10-31T14:29:25.939Z,84.45
2022-10-31T14:31:54.428Z,84.38
2022-10-31T14:34:36.455Z,84.79
2022-10-31T14:37:36.743Z,84.68
2022-10-31T14:40:17.677Z,84.78
2022-10-31T14:43:06.215Z,85.09
2022-10-31T14:45:49.830Z,84.97
2022-10-31T14:48:54.927Z,85.21
2022-10-31T14:51:29.653Z,85.14
2022-10-31T14:53:58.609Z,85.20
2022-10-31T14:56:31.701Z,85.44
2022-10-31T14:59:07.878Z,85.68
2022-10-31T15:01:38.290Z,85.74
2022-10-31T15:04:28.699Z,85.86
2022-10-31T15:07:13.278Z,85.90
2022-10-31T15:09:44.457Z,86.03
2022-10-31T15:12:29.787Z,86.17
2022-10-31T15:14:57.550Z,86.07
2022-10-31T15:17:26.348Z,86.39
2022-10-31T15:19:54.371Z,86.45
2022-10-31T15:22:25.047Z,86.40
2022-10-31T15:24:57.563Z,86.43
2022-10-31T15:27:25.957Z,86.50
2022-10-31T15:29:57.471Z,86.46
2022-10-31T15:32:29.509Z,86.39
2022-10-31T15:34:58.287Z,86.37
2022-10-31T15:37:27.068Z,86.63
2022-10-31T15:39:54.134Z,86.72
2022-10-31T15:42:40.404Z,86.71
2022-10-31T15:45:20.636Z,86.55
2022-10-31T15:48:00.576Z,86.68
2022-10-31T15:50:38.714Z,86.38
2022-10-31T15:53:12.697Z,86.34
2022-10-31T15:55:52.197Z,86.06
2022-10-31T15:58:19.904Z,86.08
2022-10-31T16:01:02.537Z,85.99
2022-10-31T16:03:34.744Z,86.04
2022-10-31T16:06:04.948Z,85.82
2022-10-31T16:08:31.961Z,86.07
2022-10-31T16:11:01.728Z,86.16
2022-10-31T16:13:32.340Z,86.21
2022-10-31T16:16:33.569Z,86.40
2022-10-31T16:18:52.201Z,86.31
2022-10-31T16:21:45.935Z,86.54
2022-10-31T16:24:32.858Z,86.33
2022-10-31T16:27:06.485Z,86.20
2022-10-31T16:29:44.290Z,86.14
2022-10-31T16:32:29.219Z,86.33
2022-10-31T16:35:09.063Z,86.49
2022-10-31T16:37:39.384Z,86.47
2022-10-31T16:40:06.783Z,86.72
2022-10-31T16:42:35.114Z,86.49
2022-10-31T16:45:02.352Z,86.59
2022-10-31T16:47:29.670Z,86.76
2022-10-31T16:50:01.170Z,86.95
2022-10-31T16:52:31.507Z,86.97
2022-10-31T16:55:01.951Z,87.02
2022-10-31T16:57:32.345Z,87.15
2022-10-31T16:59:59.617Z,87.29
2022-10-31T17:02:26.632Z,87.53
2022-10-31T17:04:56.671Z,87.49
2022-10-31T17:07:24.071Z,87.64
2022-10-31T17:09:51.037Z,87.75
2022-10-31T17:12:22.783Z,87.65
2022-10-31T17:14:52.641Z,88.09
2022-10-31T17:17:19.615Z,88.05
2022-10-31T17:19:46.636Z,88.19
2022-10-31T17:22:15.309Z,88.17
2022-10-31T17:24:42.413Z,88.35
2022-10-31T17:27:09.544Z,88.38
2022-10-31T17:29:36.538Z,88.41
2022-10-31T17:32:04.506Z,88.44
2022-10-31T17:34:31.614Z,88.65
2022-10-31T17:36:59.018Z,88.94
2022-10-31T17:39:26.324Z,88.80
2022-10-31T17:41:53.317Z,88.94
2022-10-31T17:44:20.332Z,88.61
2022-10-31T17:46:47.302Z,89.06
2022-10-31T17:49:14.498Z,89.25
2022-10-31T17:51:41.381Z,89.10
2022-10-31T17:54:09.384Z,89.33
2022-10-31T17:56:36.283Z,89.31
2022-10-31T17:59:03.356Z,89.35
2022-10-31T18:01:30.665Z,89.42
2022-10-31T18:03:57.875Z,89.50
2022-10-31T18:06:24.854Z,89.75
2022-10-31T18:08:51.877Z,89.78
2022-10-31T18:11:22.001Z,90.15
2022-10-31T18:13:55.434Z,90.24
2022-10-31T18:16:23.111Z,90.31
2022-10-31T18:18:52.401Z,90.26
2022-10-31T18:21:20.307Z,90.24
2022-10-31T18:23:48.072Z,90.49
2022-10-31T18:26:15.089Z,90.60
2022-10-31T18:28:42.080Z,90.49
2022-10-31T18:31:08.997Z,90.42
2022-10-31T18:33:37.971Z,90.37
2022-10-31T18:36:06.706Z,90.31
2022-10-31T18:38:34.679Z,90.28
2022-10-31T18:41:01.468Z,90.19
2022-10-31T18:43:28.455Z,90.26
2022-10-31T18:45:58.208Z,90.02
2022-10-31T18:48:25.368Z,90.46
2022-10-31T18:50:52.339Z,90.48
2022-10-31T18:53:19.281Z,90.54
2022-10-31T18:55:47.593Z,90.72
2022-10-31T18:58:17.278Z,90.69
2022-10-31T19:00:46.046Z,91.03
2022-10-31T19:03:14.282Z,90.85
2022-10-31T19:05:41.501Z,90.91
2022-10-31T19:08:09.015Z,90.96
2022-10-31T19:10:40.572Z,91.21
2022-10-31T19:13:07.546Z,91.41
2022-10-31T19:15:36.223Z,91.37
2022-10-31T19:18:04.723Z,91.42
2022-10-31T19:20:32.445Z,91.47
2022-10-31T19:22:59.807Z,91.45
2022-10-31T19:25:26.908Z,91.46
2022-10-31T19:27:53.806Z,91.44
2022-10-31T19:30:21.586Z,91.42
2022-10-31T19:32:48.540Z,91.50
2022-10-31T19:35:15.462Z,91.42
2022-10-31T19:37:42.663Z,91.48
2022-10-31T19:40:10.392Z,91.61
2022-10-31T19:42:37.355Z,91.38
2022-10-31T19:45:04.909Z,91.48
2022-10-31T19:47:31.812Z,91.58
2022-10-31T19:49:58.653Z,91.48
2022-10-31T19:52:25.527Z,91.43
2022-10-31T19:54:52.475Z,91.71
2022-10-31T19:57:30.781Z,91.32
2022-10-31T20:00:06.841Z,91.33
2022-10-31T20:02:33.689Z,91.26
2022-10-31T20:05:02.036Z,91.32
2022-10-31T20:07:28.998Z,91.50
2022-10-31T20:09:56.447Z,91.04
2022-10-31T20:12:23.338Z,91.26
2022-10-31T20:14:50.354Z,91.22
2022-10-31T20:17:17.233Z,91.04
2022-10-31T20:19:44.331Z,90.92
2022-10-31T20:22:11.385Z,91.10
2022-10-31T20:24:38.248Z,90.76
2022-10-31T20:27:05.907Z,90.83
2022-10-31T20:29:32.797Z,90.62
2022-10-31T20:31:59.739Z,90.63
2022-10-31T20:34:26.513Z,90.44
2022-10-31T20:36:53.698Z,90.44
2022-10-31T20:39:20.575Z,90.48
2022-10-31T20:41:48.745Z,90.38
2022-10-31T20:44:15.667Z,90.25
2022-10-31T20:46:42.466Z,90.32
2022-10-31T20:49:09.557Z,90.48
2022-10-31T20:51:36.526Z,90.34
2022-10-31T20:54:03.408Z,90.50
2022-10-31T20:56:30.374Z,90.41
2022-10-31T20:58:57.862Z,90.37
2022-10-31T21:01:27.750Z,90.40
2022-10-31T21:03:55.290Z,90.00
2022-10-31T21:06:23.732Z,90.07
2022-10-31T21:08:51.548Z,90.18
2022-10-31T21:11:21.453Z,89.88
2022-10-31T21:13:49.445Z,89.74
2022-10-31T21:16:31.195Z,89.82
2022-10-31T21:19:00.980Z,89.68
2022-10-31T21:21:32.459Z,89.69
2022-10-31T21:24:03.060Z,89.83
2022-10-31T21:26:33.595Z,89.69
2022-10-31T21:29:01.307Z,89.68
2022-10-31T21:31:28.785Z,89.38
2022-10-31T21:33:56.073Z,89.63
2022-10-31T21:36:22.947Z,89.27
2022-10-31T21:38:53.330Z,89.43
2022-10-31T21:41:20.851Z,89.31
2022-10-31T21:43:50.500Z,89.13
2022-10-31T21:46:20.589Z,89.03
2022-10-31T21:48:48.446Z,89.01
2022-10-31T21:51:18.821Z,89.01
2022-10-31T21:54:04.542Z,88.90
2022-10-31T21:56:31.658Z,88.92
2022-10-31T21:58:58.956Z,88.74
2022-10-31T22:01:28.835Z,88.90
2022-10-31T22:03:56.794Z,88.91
2022-10-31T22:06:26.765Z,88.98
2022-10-31T22:08:54.946Z,89.23
2022-10-31T22:11:22.358Z,89.21
2022-10-31T22:13:50.153Z,89.15
2022-10-31T22:16:20.096Z,89.09
2022-10-31T22:18:47.607Z,88.93
2022-10-31T22:21:17.586Z,88.96
2022-10-31T22:23:45.285Z,88.94
2022-10-31T22:26:14.618Z,89.04
2022-10-31T22:28:43.013Z,88.94
2022-10-31T22:33:40.243Z,88.76
2022-10-31T22:36:10.106Z,88.68
2022-10-31T22:38:42.038Z,88.26
2022-10-31T22:41:13.786Z,88.29
2022-10-31T22:43:40.696Z,88.58
2022-10-31T22:46:12.268Z,88.49
2022-10-31T22:48:42.319Z,88.35
2022-10-31T22:51:18.051Z,88.08
2022-10-31T22:53:46.042Z,87.98
2022-10-31T22:56:15.737Z,88.07
2022-10-31T22:58:43.178Z,87.75
2022-10-31T23:01:13.258Z,87.97
2022-10-31T23:03:40.174Z,88.18
2022-10-31T23:06:09.889Z,87.91
2022-10-31T23:08:37.655Z,87.77
2022-10-31T23:11:14.623Z,87.58
2022-10-31T23:13:59.835Z,88.03
2022-10-31T23:16:26.638Z,88.13
2022-10-31T23:18:53.499Z,88.33
2022-10-31T23:21:38.746Z,88.53
2022-10-31T23:24:05.763Z,88.76
2022-10-31T23:26:50.895Z,88.77
2022-10-31T23:29:17.739Z,89.15
2022-10-31T23:31:44.526Z,89.51
2022-10-31T23:34:11.409Z,89.83
2022-10-31T23:36:38.159Z,89.86
2022-10-31T23:39:05.049Z,90.01
2022-10-31T23:41:31.913Z,90.01
2022-10-31T23:43:58.769Z,90.21
2022-10-31T23:46:25.426Z,90.15
2022-10-31T23:48:53.722Z,90.48
2022-10-31T23:51:20.652Z,90.51
2022-10-31T23:53:48.055Z,90.79
2022-10-31T23:56:15.513Z,90.74
2022-10-31T23:58:42.476Z,90.77
